Aplicació Alertes

Dades de l'estació automàtica la Tallada d'Empordà

?
?
Resum diari 22:00 TU
Dades diàries de l'estació meteorològica
Temperatura mitjana 12.3 °C
Temperatura màxima 21.0 °C 12:18 TU
Temperatura mínima 6.6 °C 1:03 TU
Humitat relativa mitjana 75%
Precipitació acumulada 0.0 mm
Ratxa màxima del vent (2 m) 14.8 km/h - 184º 14:28 TU
Irradiació solar global 7.4 MJ/m2

El tram horari està expressat en Temps Universal (TU). Cal sumar una hora en horari d'hivern i dues en horari d'estiu per passar a l'hora oficial.

la Tallada d'Empordà

Metadades estació meteorol´gica
Municipi La Tallada d'Empordà
Comarca Baix Empordà
Altitud 15 m
Data alta 01.05.1989
Estat actual Operativa
Dades de període
Període
TU
TM
°C
TX
°C
TN
°C
HRM
%
PPT
mm
VVM (2 m)
km/h
DVM (2 m)
graus
VVX (2 m)
km/h
RS
W/m2
00:00 - 00:30 7.7 8.0 7.2 86 0.0 1.1 355 6.1 0
00:30 - 01:00 7.1 7.5 6.8 90 0.0 2.2 297 6.1 0
01:00 - 01:30 6.7 7.0 6.6 92 0.0 1.1 243 4.7 0
01:30 - 02:00 6.9 7.2 6.8 92 0.0 2.5 333 9.4 0
02:00 - 02:30 7.4 7.6 7.0 91 0.0 2.2 278 8.6 0
02:30 - 03:00 7.5 7.6 7.4 91 0.0 0.7 318 4.3 0
03:00 - 03:30 7.5 7.6 7.4 91 0.0 0.7 111 3.6 0
03:30 - 04:00 7.7 7.9 7.6 90 0.0 1.1 43 5.0 0
04:00 - 04:30 8.3 8.6 7.7 86 0.0 2.5 243 6.8 0
04:30 - 05:00 8.6 8.8 8.3 84 0.0 2.2 124 7.9 0
05:00 - 05:30 8.7 8.8 8.6 84 0.0 1.1 360 5.0 0
05:30 - 06:00 9.3 10.0 8.7 80 0.0 1.1 273 5.4 0
06:00 - 06:30 8.8 9.2 8.5 84 0.0 0.7 169 4.0 0
06:30 - 07:00 8.2 8.5 7.8 88 0.0 2.5 229 8.3 1
07:00 - 07:30 8.5 9.0 8.0 85 0.0 1.8 201 7.6 19
07:30 - 08:00 8.9 9.4 8.5 83 0.0 1.8 259 4.7 81
08:00 - 08:30 10.8 12.0 9.4 77 0.0 1.1 146 4.3 168
08:30 - 09:00 12.4 12.9 11.9 72 0.0 2.5 154 10.1 215
09:00 - 09:30 13.7 14.3 12.9 69 0.0 3.2 341 7.2 261
09:30 - 10:00 15.2 16.2 14.3 65 0.0 2.9 247 8.3 276
10:00 - 10:30 16.5 17.2 15.8 61 0.0 2.2 135 6.8 368
10:30 - 11:00 18.0 18.6 17.0 56 0.0 3.6 198 11.9 422
11:00 - 11:30 19.1 19.6 18.5 51 0.0 3.2 213 9.0 405
11:30 - 12:00 19.9 20.2 19.4 48 0.0 4.3 215 9.4 397
12:00 - 12:30 20.6 21.0 20.1 45 0.0 1.8 175 9.4 322
12:30 - 13:00 20.5 20.8 20.3 46 0.0 2.5 200 9.4 270
13:00 - 13:30 20.4 20.6 20.4 48 0.0 2.2 191 7.9 219
13:30 - 14:00 20.2 20.6 20.1 49 0.0 2.9 188 8.6 180
14:00 - 14:30 20.2 20.4 19.1 51 0.0 2.2 169 14.8 156
14:30 - 15:00 18.8 19.0 18.1 58 0.0 5.0 152 12.6 112
15:00 - 15:30 17.1 18.0 16.4 63 0.0 4.0 116 8.6 70
15:30 - 16:00 16.6 16.9 16.2 65 0.0 2.9 143 9.0 94
16:00 - 16:30 16.1 16.7 15.7 69 0.0 1.1 106 4.7 46
16:30 - 17:00 15.2 15.7 14.8 70 0.0 0.7 143 3.6 20
17:00 - 17:30 14.7 15.1 14.2 69 0.0 2.5 163 6.8 1
17:30 - 18:00 14.2 14.9 13.1 69 0.0 1.8 157 4.7 0
18:00 - 18:30 12.0 13.0 11.3 79 0.0 1.4 312 4.7 0
18:30 - 19:00 10.8 11.1 10.6 84 0.0 0.0 288 1.8 0
19:00 - 19:30 10.4 11.0 10.0 86 0.0 0.4 287 3.6 0
19:30 - 20:00 9.5 9.9 8.7 88 0.0 1.1 342 6.5 0
20:00 - 20:30 9.2 10.3 8.4 88 0.0 1.4 258 6.5 0
20:30 - 21:00 8.5 8.7 8.1 91 0.0 1.1 308 5.4 0
21:00 - 21:30 8.4 8.8 7.8 92 0.0 1.8 230 6.5 0
21:30 - 22:00 7.8 7.9 7.4 93 0.0 0.4 156 2.2 0
22:00 - 22:30 7.4 8.0 7.0 94 0.0 1.1 270 4.0 0
22:30 - 23:00 (s/d) (s/d) (s/d) (s/d) (s/d) (s/d) (s/d) (s/d) (s/d)

Les dades en taronja només han passat un control de qualitat automàtic. Resta pendent la seva validació definitiva.